sensor_id;sensor_type;location;lat;lon;timestamp;pressure;altitude;pressure_sealevel;temperature;humidity
24746;BME280;12845;52.042;6.838;2022-12-11T00:01:18;66618.94;;;-1.47;100.00
24746;BME280;12845;52.042;6.838;2022-12-11T00:03:44;66619.31;;;-1.49;100.00
24746;BME280;12845;52.042;6.838;2022-12-11T00:06:12;66617.06;;;-1.51;100.00
24746;BME280;12845;52.042;6.838;2022-12-11T00:08:38;66622.47;;;-1.48;100.00
24746;BME280;12845;52.042;6.838;2022-12-11T00:11:04;66621.75;;;-1.44;100.00
24746;BME280;12845;52.042;6.838;2022-12-11T00:13:31;66629.22;;;-1.42;100.00
24746;BME280;12845;52.042;6.838;2022-12-11T00:15:58;66618.78;;;-1.42;100.00
24746;BME280;12845;52.042;6.838;2022-12-11T00:18:23;66624.56;;;-1.42;100.00
24746;BME280;12845;52.042;6.838;2022-12-11T00:20:48;66627.38;;;-1.39;100.00
24746;BME280;12845;52.042;6.838;2022-12-11T00:23:14;66629.97;;;-1.39;100.00
24746;BME280;12845;52.042;6.838;2022-12-11T00:25:41;66627.38;;;-1.39;100.00
24746;BME280;12845;52.042;6.838;2022-12-11T00:32:58;66637.25;;;-1.32;100.00
24746;BME280;12845;52.042;6.838;2022-12-11T00:35:23;66633.53;;;-1.33;100.00
24746;BME280;12845;52.042;6.838;2022-12-11T00:40:14;66641.78;;;-1.28;100.00
24746;BME280;12845;52.042;6.838;2022-12-11T00:42:39;66640.84;;;-1.27;100.00
24746;BME280;12845;52.042;6.838;2022-12-11T00:45:05;66640.66;;;-1.29;100.00
24746;BME280;12845;52.042;6.838;2022-12-11T00:47:30;66638.97;;;-1.31;100.00
24746;BME280;12845;52.042;6.838;2022-12-11T00:49:56;66635.22;;;-1.32;100.00
24746;BME280;12845;52.042;6.838;2022-12-11T00:52:21;66636.16;;;-1.33;100.00
24746;BME280;12845;52.042;6.838;2022-12-11T00:54:47;66638.41;;;-1.31;100.00
24746;BME280;12845;52.042;6.838;2022-12-11T00:57:12;66635.78;;;-1.31;100.00
24746;BME280;12845;52.042;6.838;2022-12-11T00:59:38;66634.66;;;-1.32;100.00
24746;BME280;12845;52.042;6.838;2022-12-11T01:02:03;66640.47;;;-1.32;100.00
24746;BME280;12845;52.042;6.838;2022-12-11T01:04:29;66639.72;;;-1.28;100.00
24746;BME280;12845;52.042;6.838;2022-12-11T01:06:54;66638.59;;;-1.29;100.00
24746;BME280;12845;52.042;6.838;2022-12-11T01:09:19;66637.47;;;-1.30;100.00
24746;BME280;12845;52.042;6.838;2022-12-11T01:14:29;66644.78;;;-1.23;100.00
24746;BME280;12845;52.042;6.838;2022-12-11T01:16:54;66647.00;;;-1.21;100.00
24746;BME280;12845;52.042;6.838;2022-12-11T01:19:19;66649.63;;;-1.21;100.00
24746;BME280;12845;52.042;6.838;2022-12-11T01:21:45;66649.81;;;-1.19;100.00
24746;BME280;12845;52.042;6.838;2022-12-11T01:24:10;66650.75;;;-1.20;100.00
24746;BME280;12845;52.042;6.838;2022-12-11T01:26:35;66647.59;;;-1.21;100.00
24746;BME280;12845;52.042;6.838;2022-12-11T01:29:01;66653.78;;;-1.15;100.00
24746;BME280;12845;52.042;6.838;2022-12-11T01:31:26;66654.31;;;-1.15;100.00
24746;BME280;12845;52.042;6.838;2022-12-11T01:33:54;66656.38;;;-1.15;100.00
24746;BME280;12845;52.042;6.838;2022-12-11T01:36:21;66664.03;;;-1.10;100.00
24746;BME280;12845;52.042;6.838;2022-12-11T01:38:48;66654.31;;;-1.15;100.00
24746;BME280;12845;52.042;6.838;2022-12-11T01:44:02;66663.66;;;-1.08;100.00
24746;BME280;12845;52.042;6.838;2022-12-11T01:46:30;66660.50;;;-1.09;100.00
24746;BME280;12845;52.042;6.838;2022-12-11T01:48:56;66656.56;;;-1.13;100.00
24746;BME280;12845;52.042;6.838;2022-12-11T01:51:22;66667.97;;;-1.07;100.00
24746;BME280;12845;52.042;6.838;2022-12-11T01:53:57;66666.69;;;-1.03;100.00
24746;BME280;12845;52.042;6.838;2022-12-11T01:56:23;66665.00;;;-1.05;100.00
24746;BME280;12845;52.042;6.838;2022-12-11T01:58:52;66665.94;;;-0.99;100.00
24746;BME280;12845;52.042;6.838;2022-12-11T02:01:24;66667.25;;;-1.03;100.00
24746;BME280;12845;52.042;6.838;2022-12-11T02:03:52;66668.34;;;-1.02;100.00
24746;BME280;12845;52.042;6.838;2022-12-11T02:08:58;66667.25;;;-1.03;100.00
24746;BME280;12845;52.042;6.838;2022-12-11T02:14:27;66667.03;;;-1.05;100.00
24746;BME280;12845;52.042;6.838;2022-12-11T02:17:18;66666.69;;;-1.03;100.00
24746;BME280;12845;52.042;6.838;2022-12-11T02:28:24;66672.47;;;-1.03;100.00
24746;BME280;12845;52.042;6.838;2022-12-11T02:39:54;66667.78;;;-1.02;100.00
24746;BME280;12845;52.042;6.838;2022-12-11T02:47:39;66670.59;;;-1.00;100.00
24746;BME280;12845;52.042;6.838;2022-12-11T02:50:09;66667.63;;;-0.98;100.00
24746;BME280;12845;52.042;6.838;2022-12-11T02:52:37;66665.94;;;-0.99;100.00
24746;BME280;12845;52.042;6.838;2022-12-11T02:55:05;66674.53;;;-0.96;100.00
24746;BME280;12845;52.042;6.838;2022-12-11T02:57:39;66677.34;;;-0.94;100.00
24746;BME280;12845;52.042;6.838;2022-12-11T03:00:07;66674.53;;;-0.96;100.00
24746;BME280;12845;52.042;6.838;2022-12-11T03:07:31;66681.28;;;-0.90;100.00
24746;BME280;12845;52.042;6.838;2022-12-11T03:12:30;66675.50;;;-0.91;100.00
24746;BME280;12845;52.042;6.838;2022-12-11T03:15:01;66683.69;;;-0.93;100.00
24746;BME280;12845;52.042;6.838;2022-12-11T03:17:33;66676.78;;;-0.94;100.00
24746;BME280;12845;52.042;6.838;2022-12-11T03:22:36;66683.53;;;-0.88;100.00
24746;BME280;12845;52.042;6.838;2022-12-11T03:25:06;66682.41;;;-0.89;100.00
24746;BME280;12845;52.042;6.838;2022-12-11T03:27:49;66679.03;;;-0.92;100.00
24746;BME280;12845;52.042;6.838;2022-12-11T03:32:49;66682.78;;;-0.91;100.00
24746;BME280;12845;52.042;6.838;2022-12-11T03:37:47;66679.41;;;-0.87;100.00
24746;BME280;12845;52.042;6.838;2022-12-11T03:40:16;66679.59;;;-0.92;100.00
24746;BME280;12845;52.042;6.838;2022-12-11T03:42:45;66686.69;;;-0.87;100.00
24746;BME280;12845;52.042;6.838;2022-12-11T03:45:14;66684.63;;;-0.87;100.00
24746;BME280;12845;52.042;6.838;2022-12-11T03:47:40;66689.16;;;-0.83;100.00
24746;BME280;12845;52.042;6.838;2022-12-11T03:50:10;66689.16;;;-0.83;100.00
24746;BME280;12845;52.042;6.838;2022-12-11T03:52:39;66692.53;;;-0.80;100.00
24746;BME280;12845;52.042;6.838;2022-12-11T03:55:05;66691.97;;;-0.80;100.00
24746;BME280;12845;52.042;6.838;2022-12-11T03:57:35;66690.25;;;-0.82;100.00
24746;BME280;12845;52.042;6.838;2022-12-11T04:02:29;66686.16;;;-0.81;100.00
24746;BME280;12845;52.042;6.838;2022-12-11T04:04:54;66693.63;;;-0.79;100.00
24746;BME280;12845;52.042;6.838;2022-12-11T04:09:45;66690.66;;;-0.77;100.00
24746;BME280;12845;52.042;6.838;2022-12-11T04:12:10;66695.31;;;-0.77;100.00
24746;BME280;12845;52.042;6.838;2022-12-11T04:14:36;66697.00;;;-0.76;100.00
24746;BME280;12845;52.042;6.838;2022-12-11T04:17:20;66704.13;;;-0.72;100.00
24746;BME280;12845;52.042;6.838;2022-12-11T04:22:49;66699.63;;;-0.76;100.00
24746;BME280;12845;52.042;6.838;2022-12-11T04:25:32;66699.25;;;-0.74;100.00
24746;BME280;12845;52.042;6.838;2022-12-11T04:30:24;66702.63;;;-0.71;100.00
24746;BME280;12845;52.042;6.838;2022-12-11T04:32:50;66707.50;;;-0.69;100.00
24746;BME280;12845;52.042;6.838;2022-12-11T04:35:17;66704.88;;;-0.69;100.00
24746;BME280;12845;52.042;6.838;2022-12-11T04:37:42;66699.66;;;-0.69;100.00
24746;BME280;12845;52.042;6.838;2022-12-11T04:40:11;66706.94;;;-0.69;100.00
24746;BME280;12845;52.042;6.838;2022-12-11T04:42:37;66707.50;;;-0.69;100.00
24746;BME280;12845;52.042;6.838;2022-12-11T04:45:04;66705.78;;;-0.70;100.00
24746;BME280;12845;52.042;6.838;2022-12-11T04:47:30;66704.88;;;-0.69;100.00
24746;BME280;12845;52.042;6.838;2022-12-11T04:49:55;66706.94;;;-0.69;100.00
24746;BME280;12845;52.042;6.838;2022-12-11T04:52:20;66705.44;;;-0.68;100.00
24746;BME280;12845;52.042;6.838;2022-12-11T04:54:46;66710.31;;;-0.66;100.00
24746;BME280;12845;52.042;6.838;2022-12-11T05:02:02;66708.25;;;-0.65;100.00
24746;BME280;12845;52.042;6.838;2022-12-11T05:04:32;66707.13;;;-0.66;100.00
24746;BME280;12845;52.042;6.838;2022-12-11T05:06:58;66707.13;;;-0.66;100.00
24746;BME280;12845;52.042;6.838;2022-12-11T05:09:24;66708.81;;;-0.65;100.00
24746;BME280;12845;52.042;6.838;2022-12-11T05:11:50;66709.72;;;-0.66;100.00
24746;BME280;12845;52.042;6.838;2022-12-11T05:14:16;66707.13;;;-0.66;100.00
24746;BME280;12845;52.042;6.838;2022-12-11T05:16:41;66707.13;;;-0.66;100.00
24746;BME280;12845;52.042;6.838;2022-12-11T05:19:07;66706.56;;;-0.67;100.00
24746;BME280;12845;52.042;6.838;2022-12-11T05:21:32;66708.25;;;-0.65;100.00
24746;BME280;12845;52.042;6.838;2022-12-11T05:23:57;66712.34;;;-0.66;100.00
24746;BME280;12845;52.042;6.838;2022-12-11T05:26:23;66707.69;;;-0.66;100.00
24746;BME280;12845;52.042;6.838;2022-12-11T05:36:18;66707.69;;;-0.66;100.00
24746;BME280;12845;52.042;6.838;2022-12-11T05:38:44;66707.13;;;-0.66;100.00
24746;BME280;12845;52.042;6.838;2022-12-11T05:41:12;66708.25;;;-0.65;100.00
24746;BME280;12845;52.042;6.838;2022-12-11T05:46:12;66710.31;;;-0.66;100.00
24746;BME280;12845;52.042;6.838;2022-12-11T05:48:38;66706.38;;;-0.62;100.00
24746;BME280;12845;52.042;6.838;2022-12-11T05:51:05;66709.38;;;-0.64;100.00
24746;BME280;12845;52.042;6.838;2022-12-11T05:56:05;66719.66;;;-0.60;100.00
24746;BME280;12845;52.042;6.838;2022-12-11T05:58:31;66719.09;;;-0.60;100.00
24746;BME280;12845;52.042;6.838;2022-12-11T06:00:57;66714.78;;;-0.62;100.00
24746;BME280;12845;52.042;6.838;2022-12-11T06:03:23;66713.28;;;-0.61;100.00
24746;BME280;12845;52.042;6.838;2022-12-11T06:05:48;66715.53;;;-0.59;100.00
24746;BME280;12845;52.042;6.838;2022-12-11T06:10:47;66718.34;;;-0.56;100.00
24746;BME280;12845;52.042;6.838;2022-12-11T06:15:38;66722.09;;;-0.55;100.00
24746;BME280;12845;52.042;6.838;2022-12-11T06:20:33;66721.16;;;-0.54;100.00
24746;BME280;12845;52.042;6.838;2022-12-11T06:22:59;66723.22;;;-0.54;100.00
24746;BME280;12845;52.042;6.838;2022-12-11T06:25:26;66718.19;;;-0.52;100.00
24746;BME280;12845;52.042;6.838;2022-12-11T06:27:51;66725.47;;;-0.52;100.00
24746;BME280;12845;52.042;6.838;2022-12-11T06:30:17;66726.59;;;-0.51;100.00
24746;BME280;12845;52.042;6.838;2022-12-11T06:32:43;66722.84;;;-0.52;100.00
24746;BME280;12845;52.042;6.838;2022-12-11T06:35:08;66723.97;;;-0.51;100.00
24746;BME280;12845;52.042;6.838;2022-12-11T06:37:35;66717.63;;;-0.52;100.00
24746;BME280;12845;52.042;6.838;2022-12-11T06:40:01;66725.66;;;-0.50;100.00
24746;BME280;12845;52.042;6.838;2022-12-11T06:44:54;66720.97;;;-0.49;100.00
24746;BME280;12845;52.042;6.838;2022-12-11T06:47:21;66729.22;;;-0.51;100.00
24746;BME280;12845;52.042;6.838;2022-12-11T06:49:47;66727.91;;;-0.48;100.00
24746;BME280;12845;52.042;6.838;2022-12-11T06:52:12;66726.78;;;-0.49;100.00
24746;BME280;12845;52.042;6.838;2022-12-11T06:54:38;66726.22;;;-0.49;100.00
24746;BME280;12845;52.042;6.838;2022-12-11T06:57:03;66725.66;;;-0.50;100.00
24746;BME280;12845;52.042;6.838;2022-12-11T06:59:29;66731.09;;;-0.47;100.00
24746;BME280;12845;52.042;6.838;2022-12-11T07:04:19;66733.34;;;-0.45;100.00
24746;BME280;12845;52.042;6.838;2022-12-11T07:06:48;66731.09;;;-0.47;100.00
24746;BME280;12845;52.042;6.838;2022-12-11T07:09:14;66730.72;;;-0.45;100.00
24746;BME280;12845;52.042;6.838;2022-12-11T07:16:29;66735.00;;;-0.43;100.00
24746;BME280;12845;52.042;6.838;2022-12-11T07:18:55;66727.16;;;-0.43;100.00
24746;BME280;12845;52.042;6.838;2022-12-11T07:21:26;66733.53;;;-0.42;100.00
24746;BME280;12845;52.042;6.838;2022-12-11T07:23:52;66726.25;;;-0.42;100.00
24746;BME280;12845;52.042;6.838;2022-12-11T07:26:19;66734.66;;;-0.41;100.00
24746;BME280;12845;52.042;6.838;2022-12-11T07:28:45;66735.59;;;-0.43;100.00
24746;BME280;12845;52.042;6.838;2022-12-11T07:31:17;66727.75;;;-0.43;100.00
24746;BME280;12845;52.042;6.838;2022-12-11T07:33:43;66735.22;;;-0.41;100.00
24746;BME280;12845;52.042;6.838;2022-12-11T07:38:35;66734.09;;;-0.42;100.00
24746;BME280;12845;52.042;6.838;2022-12-11T07:41:05;66735.22;;;-0.41;100.00
24746;BME280;12845;52.042;6.838;2022-12-11T07:43:32;66736.16;;;-0.42;100.00
24746;BME280;12845;52.042;6.838;2022-12-11T07:48:26;66741.00;;;-0.40;100.00
24746;BME280;12845;52.042;6.838;2022-12-11T07:53:17;66727.91;;;-0.48;100.00
24746;BME280;12845;52.042;6.838;2022-12-11T07:58:07;66732.97;;;-0.43;100.00
24746;BME280;12845;52.042;6.838;2022-12-11T08:05:23;66737.47;;;-0.39;100.00
24746;BME280;12845;52.042;6.838;2022-12-11T08:10:14;66739.53;;;-0.39;100.00
24746;BME280;12845;52.042;6.838;2022-12-11T08:12:39;66740.06;;;-0.39;100.00
24746;BME280;12845;52.042;6.838;2022-12-11T08:15:05;66739.72;;;-0.37;100.00
24746;BME280;12845;52.042;6.838;2022-12-11T08:17:30;66741.19;;;-0.38;100.00
24746;BME280;12845;52.042;6.838;2022-12-11T08:19:56;66740.84;;;-0.36;100.00
24746;BME280;12845;52.042;6.838;2022-12-11T08:22:21;66740.84;;;-0.36;100.00
24746;BME280;12845;52.042;6.838;2022-12-11T08:24:46;66741.94;;;-0.35;100.00
24746;BME280;12845;52.042;6.838;2022-12-11T08:29:37;66744.56;;;-0.35;100.00
24746;BME280;12845;52.042;6.838;2022-12-11T08:32:03;66736.72;;;-0.35;100.00
24746;BME280;12845;52.042;6.838;2022-12-11T08:34:28;66740.84;;;-0.36;100.00
24746;BME280;12845;52.042;6.838;2022-12-11T08:36:53;66741.38;;;-0.35;100.00
24746;BME280;12845;52.042;6.838;2022-12-11T08:41:44;66740.28;;;-0.36;100.00
24746;BME280;12845;52.042;6.838;2022-12-11T08:46:36;66748.31;;;-0.34;100.00
24746;BME280;12845;52.042;6.838;2022-12-11T08:49:01;66737.84;;;-0.34;100.00
24746;BME280;12845;52.042;6.838;2022-12-11T08:51:28;66742.53;;;-0.34;100.00
24746;BME280;12845;52.042;6.838;2022-12-11T08:56:20;66747.56;;;-0.30;100.00
24746;BME280;12845;52.042;6.838;2022-12-11T08:58:48;66749.63;;;-0.30;100.00
24746;BME280;12845;52.042;6.838;2022-12-11T09:01:22;66751.88;;;-0.28;100.00
24746;BME280;12845;52.042;6.838;2022-12-11T09:03:49;66752.81;;;-0.30;100.00
24746;BME280;12845;52.042;6.838;2022-12-11T09:06:17;66747.56;;;-0.30;100.00
24746;BME280;12845;52.042;6.838;2022-12-11T09:08:45;66749.81;;;-0.28;100.00
24746;BME280;12845;52.042;6.838;2022-12-11T09:11:14;66756.19;;;-0.27;100.00
24746;BME280;12845;52.042;6.838;2022-12-11T09:16:08;66746.28;;;-0.26;100.00
24746;BME280;12845;52.042;6.838;2022-12-11T09:18:34;66756.94;;;-0.24;100.00
24746;BME280;12845;52.042;6.838;2022-12-11T09:21:09;66759.53;;;-0.24;100.00
24746;BME280;12845;52.042;6.838;2022-12-11T09:23:36;66754.69;;;-0.26;100.00
24746;BME280;12845;52.042;6.838;2022-12-11T09:28:31;66758.06;;;-0.22;100.00
24746;BME280;12845;52.042;6.838;2022-12-11T09:30:56;66754.31;;;-0.24;100.00
24746;BME280;12845;52.042;6.838;2022-12-11T09:35:56;66757.13;;;-0.21;100.00
24746;BME280;12845;52.042;6.838;2022-12-11T09:38:25;66750.38;;;-0.27;100.00
24746;BME280;12845;52.042;6.838;2022-12-11T09:46:00;66755.44;;;-0.22;100.00
24746;BME280;12845;52.042;6.838;2022-12-11T09:48:27;66757.13;;;-0.21;100.00
24746;BME280;12845;52.042;6.838;2022-12-11T09:50:55;66756.00;;;-0.22;100.00
24746;BME280;12845;52.042;6.838;2022-12-11T09:53:29;66760.31;;;-0.20;100.00
24746;BME280;12845;52.042;6.838;2022-12-11T10:04:01;66756.56;;;-0.21;100.00
24746;BME280;12845;52.042;6.838;2022-12-11T10:06:47;66759.94;;;-0.18;100.00
24746;BME280;12845;52.042;6.838;2022-12-11T10:09:18;66759.94;;;-0.18;100.00
24746;BME280;12845;52.042;6.838;2022-12-11T10:19:52;66758.63;;;-0.15;100.00
24746;BME280;12845;52.042;6.838;2022-12-11T10:22:30;66760.50;;;-0.18;100.00
24746;BME280;12845;52.042;6.838;2022-12-11T10:24:59;66756.97;;;-0.16;100.00
24746;BME280;12845;52.042;6.838;2022-12-11T10:32:31;66765.38;;;-0.16;100.00
24746;BME280;12845;52.042;6.838;2022-12-11T10:35:04;66766.47;;;-0.15;100.00
24746;BME280;12845;52.042;6.838;2022-12-11T10:37:30;66762.19;;;-0.16;100.00
24746;BME280;12845;52.042;6.838;2022-12-11T10:39:55;66762.19;;;-0.16;100.00
24746;BME280;12845;52.042;6.838;2022-12-11T10:42:22;66758.25;;;-0.20;100.00
24746;BME280;12845;52.042;6.838;2022-12-11T10:52:25;66762.75;;;-0.16;100.00
24746;BME280;12845;52.042;6.838;2022-12-11T10:57:27;66765.38;;;-0.16;100.00
24746;BME280;12845;52.042;6.838;2022-12-11T10:59:54;66760.50;;;-0.18;100.00
24746;BME280;12845;52.042;6.838;2022-12-11T11:04:53;66761.06;;;-0.17;100.00
24746;BME280;12845;52.042;6.838;2022-12-11T11:07:28;66759.22;;;-0.14;100.00
24746;BME280;12845;52.042;6.838;2022-12-11T11:12:42;66762.75;;;-0.16;100.00
24746;BME280;12845;52.042;6.838;2022-12-11T11:17:54;66765.94;;;-0.15;100.00
24746;BME280;12845;52.042;6.838;2022-12-11T11:20:26;66762.19;;;-0.16;100.00
24746;BME280;12845;52.042;6.838;2022-12-11T11:22:55;66770.44;;;-0.11;100.00
24746;BME280;12845;52.042;6.838;2022-12-11T11:28:00;66767.81;;;-0.11;100.00
24746;BME280;12845;52.042;6.838;2022-12-11T11:30:32;66768.75;;;-0.13;100.00
24746;BME280;12845;52.042;6.838;2022-12-11T11:33:03;66767.63;;;-0.14;100.00
24746;BME280;12845;52.042;6.838;2022-12-11T11:35:30;66762.75;;;-0.16;100.00
24746;BME280;12845;52.042;6.838;2022-12-11T11:43:06;66763.50;;;-0.20;100.00
24746;BME280;12845;52.042;6.838;2022-12-11T11:50:51;66762.56;;;-0.18;100.00
24746;BME280;12845;52.042;6.838;2022-12-11T11:56:17;66754.31;;;-0.24;100.00
24746;BME280;12845;52.042;6.838;2022-12-11T11:59:00;66750.94;;;-0.27;100.00
24746;BME280;12845;52.042;6.838;2022-12-11T12:01:27;66753.94;;;-0.29;100.00
24746;BME280;12845;52.042;6.838;2022-12-11T12:06:41;66759.75;;;-0.21;100.00
24746;BME280;12845;52.042;6.838;2022-12-11T12:09:24;66756.94;;;-0.24;100.00
24746;BME280;12845;52.042;6.838;2022-12-11T12:20:20;66752.47;;;-0.20;100.00
24746;BME280;12845;52.042;6.838;2022-12-11T12:25:30;66754.91;;;-0.23;100.00
24746;BME280;12845;52.042;6.838;2022-12-11T12:28:13;66757.69;;;-0.20;100.00
24746;BME280;12845;52.042;6.838;2022-12-11T12:38:52;66757.13;;;-0.21;100.00
24746;BME280;12845;52.042;6.838;2022-12-11T12:41:41;66760.69;;;-0.22;100.00
24746;BME280;12845;52.042;6.838;2022-12-11T12:44:22;66754.13;;;-0.26;100.00
24746;BME280;12845;52.042;6.838;2022-12-11T12:47:08;66756.00;;;-0.22;100.00
24746;BME280;12845;52.042;6.838;2022-12-11T12:52:00;66743.47;;;-0.29;100.00
24746;BME280;12845;52.042;6.838;2022-12-11T12:54:28;66750.94;;;-0.27;100.00
24746;BME280;12845;52.042;6.838;2022-12-11T12:56:55;66750.38;;;-0.27;100.00
24746;BME280;12845;52.042;6.838;2022-12-11T13:01:53;66752.09;;;-0.18;100.00
24746;BME280;12845;52.042;6.838;2022-12-11T13:04:34;66754.16;;;-0.19;100.00
24746;BME280;12845;52.042;6.838;2022-12-11T13:07:19;66745.91;;;-0.24;100.00
24746;BME280;12845;52.042;6.838;2022-12-11T13:10:03;66753.19;;;-0.25;100.00
24746;BME280;12845;52.042;6.838;2022-12-11T13:12:45;66744.19;;;-0.33;100.00
24746;BME280;12845;52.042;6.838;2022-12-11T13:15:30;66749.63;;;-0.30;100.00
24746;BME280;12845;52.042;6.838;2022-12-11T13:17:57;66746.81;;;-0.33;100.00
24746;BME280;12845;52.042;6.838;2022-12-11T13:20:28;66734.50;;;-0.37;100.00
24746;BME280;12845;52.042;6.838;2022-12-11T13:25:28;66747.97;;;-0.25;100.00
24746;BME280;12845;52.042;6.838;2022-12-11T13:28:05;66753.19;;;-0.25;100.00
24746;BME280;12845;52.042;6.838;2022-12-11T13:30:31;66750.94;;;-0.27;100.00
24746;BME280;12845;52.042;6.838;2022-12-11T13:33:00;66740.66;;;-0.31;100.00
24746;BME280;12845;52.042;6.838;2022-12-11T13:35:28;66746.47;;;-0.31;100.00
24746;BME280;12845;52.042;6.838;2022-12-11T13:47:47;66746.47;;;-0.31;100.00
24746;BME280;12845;52.042;6.838;2022-12-11T13:50:25;66750.94;;;-0.27;100.00
24746;BME280;12845;52.042;6.838;2022-12-11T13:52:57;66750.53;;;-0.32;100.00
24746;BME280;12845;52.042;6.838;2022-12-11T13:55:26;66746.47;;;-0.31;100.00
24746;BME280;12845;52.042;6.838;2022-12-11T13:57:52;66748.13;;;-0.29;100.00
24746;BME280;12845;52.042;6.838;2022-12-11T14:00:20;66757.31;;;-0.26;100.00
24746;BME280;12845;52.042;6.838;2022-12-11T14:02:46;66753.94;;;-0.29;100.00
24746;BME280;12845;52.042;6.838;2022-12-11T14:05:12;66743.66;;;-0.33;100.00
24746;BME280;12845;52.042;6.838;2022-12-11T14:12:42;66756.00;;;-0.22;100.00
24746;BME280;12845;52.042;6.838;2022-12-11T14:17:40;66763.13;;;-0.18;100.00
24746;BME280;12845;52.042;6.838;2022-12-11T14:20:16;66759.94;;;-0.18;100.00
24746;BME280;12845;52.042;6.838;2022-12-11T14:22:42;66762.56;;;-0.18;100.00
24746;BME280;12845;52.042;6.838;2022-12-11T14:25:28;66756.56;;;-0.21;100.00
24746;BME280;12845;52.042;6.838;2022-12-11T14:27:54;66754.31;;;-0.24;100.00
24746;BME280;12845;52.042;6.838;2022-12-11T14:30:26;66745.72;;;-0.27;100.00
24746;BME280;12845;52.042;6.838;2022-12-11T14:37:49;66746.28;;;-0.26;100.00
24746;BME280;12845;52.042;6.838;2022-12-11T14:40:17;66746.28;;;-0.26;100.00
24746;BME280;12845;52.042;6.838;2022-12-11T14:45:31;66748.72;;;-0.29;100.00
24746;BME280;12845;52.042;6.838;2022-12-11T14:53:35;66754.13;;;-0.26;100.00
24746;BME280;12845;52.042;6.838;2022-12-11T14:56:05;66750.94;;;-0.27;100.00
24746;BME280;12845;52.042;6.838;2022-12-11T15:01:41;66749.28;;;-0.28;100.00
24746;BME280;12845;52.042;6.838;2022-12-11T15:07:26;66745.31;;;-0.32;100.00
24746;BME280;12845;52.042;6.838;2022-12-11T15:12:34;66742.53;;;-0.34;100.00
24746;BME280;12845;52.042;6.838;2022-12-11T15:26:58;66719.47;;;-0.55;100.00
24746;BME280;12845;52.042;6.838;2022-12-11T15:29:38;66727.91;;;-0.48;100.00
24746;BME280;12845;52.042;6.838;2022-12-11T15:32:17;66732.97;;;-0.43;100.00
24746;BME280;12845;52.042;6.838;2022-12-11T15:34:58;66733.53;;;-0.42;100.00
24746;BME280;12845;52.042;6.838;2022-12-11T15:37:55;66745.69;;;-0.34;100.00
24746;BME280;12845;52.042;6.838;2022-12-11T15:44:02;66739.53;;;-0.32;100.00
24746;BME280;12845;52.042;6.838;2022-12-11T15:47:13;66745.69;;;-0.34;100.00
24746;BME280;12845;52.042;6.838;2022-12-11T15:59:22;66745.91;;;-0.31;100.00
24746;BME280;12845;52.042;6.838;2022-12-11T16:01:48;66749.28;;;-0.28;100.00
24746;BME280;12845;52.042;6.838;2022-12-11T16:04:13;66749.28;;;-0.28;100.00
24746;BME280;12845;52.042;6.838;2022-12-11T16:06:39;66748.72;;;-0.29;100.00
24746;BME280;12845;52.042;6.838;2022-12-11T16:09:09;66756.19;;;-0.27;100.00
24746;BME280;12845;52.042;6.838;2022-12-11T16:11:34;66747.56;;;-0.30;100.00
24746;BME280;12845;52.042;6.838;2022-12-11T16:16:28;66748.72;;;-0.29;100.00
24746;BME280;12845;52.042;6.838;2022-12-11T16:21:19;66750.38;;;-0.27;100.00
24746;BME280;12845;52.042;6.838;2022-12-11T16:23:45;66752.09;;;-0.26;100.00
24746;BME280;12845;52.042;6.838;2022-12-11T16:26:10;66752.09;;;-0.26;100.00
24746;BME280;12845;52.042;6.838;2022-12-11T16:28:38;66741.78;;;-0.30;100.00
24746;BME280;12845;52.042;6.838;2022-12-11T16:33:33;66743.47;;;-0.29;100.00
24746;BME280;12845;52.042;6.838;2022-12-11T16:35:59;66745.31;;;-0.32;100.00
24746;BME280;12845;52.042;6.838;2022-12-11T16:38:24;66747.00;;;-0.30;100.00
24746;BME280;12845;52.042;6.838;2022-12-11T16:40:58;66748.72;;;-0.29;100.00
24746;BME280;12845;52.042;6.838;2022-12-11T16:43:24;66746.25;;;-0.33;100.00
24746;BME280;12845;52.042;6.838;2022-12-11T16:45:53;66740.09;;;-0.32;100.00
24746;BME280;12845;52.042;6.838;2022-12-11T16:50:44;66745.31;;;-0.32;100.00
24746;BME280;12845;52.042;6.838;2022-12-11T16:53:09;66747.94;;;-0.32;100.00
24746;BME280;12845;52.042;6.838;2022-12-11T16:55:38;66744.19;;;-0.33;100.00
24746;BME280;12845;52.042;6.838;2022-12-11T16:58:03;66745.91;;;-0.31;100.00
24746;BME280;12845;52.042;6.838;2022-12-11T17:00:29;66745.31;;;-0.32;100.00
24746;BME280;12845;52.042;6.838;2022-12-11T17:07:46;66746.47;;;-0.31;100.00
24746;BME280;12845;52.042;6.838;2022-12-11T17:10:12;66749.06;;;-0.31;100.00
24746;BME280;12845;52.042;6.838;2022-12-11T17:12:38;66740.84;;;-0.36;100.00
24746;BME280;12845;52.042;6.838;2022-12-11T17:15:04;66735.22;;;-0.41;100.00
24746;BME280;12845;52.042;6.838;2022-12-11T17:17:29;66738.56;;;-0.38;100.00
24746;BME280;12845;52.042;6.838;2022-12-11T17:19:55;66746.81;;;-0.33;100.00
24746;BME280;12845;52.042;6.838;2022-12-11T17:22:20;66746.63;;;-0.35;100.00
24746;BME280;12845;52.042;6.838;2022-12-11T17:24:46;66744.19;;;-0.33;100.00
24746;BME280;12845;52.042;6.838;2022-12-11T17:27:11;66745.69;;;-0.34;100.00
24746;BME280;12845;52.042;6.838;2022-12-11T17:32:02;66756.94;;;-0.24;100.00
24746;BME280;12845;52.042;6.838;2022-12-11T17:34:28;66753.19;;;-0.25;100.00
24746;BME280;12845;52.042;6.838;2022-12-11T17:39:18;66748.13;;;-0.29;100.00
24746;BME280;12845;52.042;6.838;2022-12-11T17:41:44;66749.28;;;-0.28;100.00
24746;BME280;12845;52.042;6.838;2022-12-11T17:44:09;66753.94;;;-0.29;100.00
24746;BME280;12845;52.042;6.838;2022-12-11T17:46:35;66757.69;;;-0.20;100.00
24746;BME280;12845;52.042;6.838;2022-12-11T17:49:02;66752.63;;;-0.25;100.00
24746;BME280;12845;52.042;6.838;2022-12-11T17:53:53;66761.81;;;-0.21;100.00
24746;BME280;12845;52.042;6.838;2022-12-11T17:56:20;66754.91;;;-0.23;100.00
24746;BME280;12845;52.042;6.838;2022-12-11T18:04:24;66748.13;;;-0.29;100.00
24746;BME280;12845;52.042;6.838;2022-12-11T18:06:50;66755.44;;;-0.22;100.00
24746;BME280;12845;52.042;6.838;2022-12-11T18:09:15;66761.06;;;-0.17;100.00
24746;BME280;12845;52.042;6.838;2022-12-11T18:18:58;66754.91;;;-0.23;100.00
24746;BME280;12845;52.042;6.838;2022-12-11T18:21:28;66760.50;;;-0.18;100.00